Date,TemperatureHighF,TemperatureAvgF,TemperatureLowF,DewpointHighF,DewpointAvgF,DewpointLowF,HumidityHigh,HumidityAvg,HumidityLow,PressureMaxIn,PressureMinIn,WindSpeedMaxMPH,WindSpeedAvgMPH,GustSpeedMaxMPH,PrecipitationSumIn
2013-1-1,43.5,40.2,31.6,39.2,36.4,26.5,93,86,75,30.06,29.88,16,5,51,0.00
2013-1-2,36.2,30.7,26.5,28.0,25.2,21.8,89,80,72,30.23,30.01,17,4,51,0.00
2013-1-3,37.0,31.1,26.9,29.5,26.9,24.8,93,85,73,30.23,30.12,10,2,51,0.00
2013-1-4,39.7,34.7,29.5,33.2,31.0,27.6,95,86,77,30.15,30.02,24,6,51,0.00
2013-1-5,44.9,36.7,31.5,35.9,31.9,28.2,92,83,70,30.33,30.07,14,4,51,0.00
2013-1-6,49.0,40.7,34.0,43.7,37.8,32.0,100,90,77,30.28,30.02,12,2,51,0.06
2013-1-7,49.7,40.6,32.5,41.2,36.4,31.2,96,86,66,30.44,30.09,14,3,51,0.00
2013-1-8,51.4,40.1,29.6,44.0,37.5,29.4,100,91,76,30.48,30.38,16,2,51,0.00
2013-1-9,54.9,44.2,33.1,50.1,42.2,33.1,100,93,81,30.43,30.17,18,2,51,0.00
2013-1-10,52.2,44.9,37.8,43.0,38.0,34.8,94,77,61,30.57,30.28,18,3,51,0.00
2013-1-11,47.4,44.5,37.8,46.9,43.5,36.2,100,96,86,30.56,30.10,9,2,51,0.83
2013-1-12,47.7,45.8,44.4,47.6,45.8,44.3,100,100,100,30.20,30.08,8,0,51,0.00
2013-1-13,50.9,46.2,42.0,50.8,46.2,41.9,100,100,100,30.19,30.04,9,1,51,0.01
2013-1-14,58.7,51.8,42.7,58.6,50.2,41.3,100,94,75,30.31,29.96,12,2,51,0.04
2013-1-15,42.7,40.0,37.8,42.4,38.5,36.4,100,94,88,30.36,30.23,11,1,51,0.28
2013-1-16,42.1,38.0,35.7,41.9,38.0,35.7,100,100,100,30.24,29.81,12,2,51,0.97
2013-1-17,45.7,41.2,38.8,40.9,39.3,37.0,100,93,82,30.13,29.96,11,3,51,0.00
2013-1-18,39.7,33.0,27.9,37.5,26.2,20.8,93,77,62,30.54,30.04,19,4,51,0.00
2013-1-19,52.6,40.8,28.5,39.8,33.6,23.0,91,76,61,30.46,29.98,21,5,51,0.00
2013-1-20,56.6,45.2,33.9,42.8,36.0,25.1,88,71,49,30.08,29.74,25,7,51,0.00
2013-1-21,34.2,31.5,28.5,31.7,26.1,22.0,100,80,68,30.14,29.88,11,1,51,0.00
2013-1-22,28.7,21.9,16.7,27.4,15.0,9.1,96,75,62,30.27,29.89,21,8,51,0.00
2013-1-23,24.0,17.8,13.4,13.5,11.1,7.7,90,75,63,30.31,30.21,16,4,51,0.00
2013-1-24,27.7,20.9,14.5,17.4,13.8,11.6,92,75,55,30.46,30.17,22,4,51,0.00
2013-1-25,26.2,19.7,14.3,22.3,15.2,8.7,100,83,68,30.47,30.12,13,3,51,0.00
2013-1-26,30.7,22.9,14.9,24.2,19.1,14.7,100,86,69,30.43,30.10,15,4,51,0.00
2013-1-27,36.4,27.3,18.5,26.9,21.8,16.0,91,80,64,30.57,30.43,14,3,51,0.00
2013-1-28,37.4,31.6,24.6,37.2,30.7,22.4,100,96,88,30.54,30.06,9,1,51,0.13
2013-1-29,53.9,44.1,36.0,51.6,43.8,35.5,100,99,87,30.18,30.05,11,1,51,0.00
2013-1-30,61.9,52.7,43.7,61.8,52.7,43.6,100,100,97,30.11,29.43,25,3,51,0.04
2013-1-31,60.6,46.5,31.3,60.6,40.5,23.6,100,80,62,29.86,29.14,34,10,51,0.17
2013-2-1,34.2,30.0,24.9,26.2,22.8,18.3,82,75,61,30.28,29.86,22,6,51,0.00
2013-2-2,32.7,26.6,19.6,26.3,19.9,16.1,100,76,60,30.36,30.10,14,5,51,0.00
2013-2-3,33.6,28.9,25.0,31.9,28.0,25.0,100,97,89,30.10,29.84,10,1,51,0.02
2013-2-4,33.7,28.6,23.7,28.6,23.5,20.0,100,81,68,30.05,29.88,19,5,51,0.00
2013-2-5,35.1,31.6,27.8,34.9,31.6,27.6,100,100,99,30.02,29.95,9,1,51,0.00
2013-3-28,53.9,50.4,44.4,43.3,42.0,40.5,86,73,64,30.14,30.02,11,3,12,0.00
2013-3-29,57.9,49.1,39.1,45.5,40.6,36.8,92,73,56,30.18,30.08,12,3,16,0.00
2013-3-30,59.8,48.4,39.0,45.7,41.1,37.2,95,78,48,30.21,30.11,9,2,12,0.00
2013-3-31,54.3,47.1,38.7,49.3,44.6,37.8,100,91,72,30.17,29.71,10,3,16,0.39
2013-4-1,64.9,52.6,41.5,55.7,47.1,28.8,100,83,58,29.95,29.66,19,5,24,9.36
2013-4-2,49.0,42.0,33.4,32.0,28.8,26.1,76,60,50,30.12,29.95,16,5,21,0.00
2013-4-3,50.7,42.2,33.7,33.4,28.8,25.2,71,59,49,30.32,30.11,18,5,21,0.00
2013-4-4,48.3,41.5,31.9,41.0,33.2,25.7,86,73,59,30.42,30.13,11,2,14,0.00
2013-4-5,65.4,50.7,39.9,47.7,40.9,34.9,100,73,42,30.13,29.74,12,3,15,0.08
2013-4-6,51.2,43.8,37.3,38.0,34.0,28.5,93,69,48,30.35,30.02,18,3,19,0.00
2013-4-7,54.8,47.7,38.1,52.5,45.1,36.5,96,91,81,30.34,30.05,15,4,22,0.00
2013-4-8,66.4,58.7,50.5,57.1,53.8,49.7,99,84,68,30.13,30.00,8,2,12,0.00
2013-4-9,83.1,69.4,52.6,64.6,58.3,52.4,100,72,39,30.03,29.95,15,4,21,0.00
2013-4-10,70.8,61.8,52.9,62.1,57.1,52.0,100,85,72,30.00,29.81,21,4,21,0.40
2013-4-11,59.5,53.8,45.9,59.5,53.8,45.7,100,100,98,30.06,29.78,13,4,21,0.03
2013-4-12,46.3,43.8,42.2,46.3,43.8,42.2,100,100,100,30.05,29.73,20,6,23,1.16
2013-4-13,57.8,47.7,41.1,53.7,46.8,41.1,100,97,83,30.02,29.76,9,2,11,0.18
2013-4-14,61.9,53.4,43.5,53.7,46.2,43.5,100,79,52,30.24,30.01,17,3,18,0.00
2013-4-15,50.8,47.8,45.4,48.3,45.3,41.5,100,91,81,30.40,30.24,10,3,13,0.00
2013-4-16,61.3,55.2,47.0,59.8,54.5,47.0,100,98,94,30.40,30.16,14,3,18,0.00
2013-4-17,65.3,59.9,52.6,59.3,55.0,47.9,100,85,70,30.32,30.14,9,2,18,0.01
2013-4-18,55.0,52.0,48.3,55.0,51.3,46.7,100,97,84,30.38,30.13,11,2,18,0.24
2013-4-19,70.5,61.7,53.5,67.9,61.3,53.5,100,99,90,30.13,29.72,13,3,20,0.01
2013-4-20,65.6,54.4,49.5,65.6,46.6,38.3,100,77,56,30.32,29.72,15,6,20,0.36
2013-4-21,51.4,46.2,39.2,40.7,37.5,31.8,94,72,61,30.64,30.32,15,3,20,9.12
2013-4-22,48.2,45.4,41.4,45.2,42.8,39.2,99,91,82,30.67,30.50,16,6,22,9.12
2013-4-23,51.3,45.9,42.2,50.0,45.2,42.0,100,97,95,30.50,30.14,15,5,22,9.12
2013-4-24,62.5,52.4,41.4,57.5,51.0,41.4,100,95,78,30.15,29.88,10,2,22,9.12
2013-4-25,64.7,55.8,48.8,57.4,46.9,42.8,100,74,47,30.31,29.92,22,4,22,0.02
2013-4-26,67.4,55.8,45.3,49.7,46.0,42.0,96,71,49,30.43,30.31,8,2,22,9.60
2013-4-27,64.6,56.0,47.4,47.5,44.8,42.6,87,67,49,30.46,30.34,9,2,22,9.60
2013-4-28,63.6,55.8,45.4,55.8,47.4,42.1,96,75,53,30.36,30.25,10,2,22,9.60
2013-4-29,55.9,53.4,51.2,54.3,53.1,51.1,100,99,93,30.28,30.21,6,2,22,0.25
2013-4-30,58.1,53.5,49.5,56.7,51.6,48.2,100,93,80,30.37,30.22,12,3,22,15.60
2013-5-1,58.9,51.4,43.7,54.4,49.9,43.6,100,95,80,30.51,30.36,11,2,22,15.60
2013-5-2,61.5,54.6,43.6,56.0,50.4,43.6,100,86,71,30.51,30.37,9,1,22,15.60
2013-5-3,55.8,52.3,49.5,51.9,49.9,47.9,100,92,79,30.50,30.39,15,4,22,15.60
2013-5-4,58.3,51.5,44.6,56.2,49.7,44.6,100,94,82,30.40,30.30,11,3,22,15.60
2013-5-5,53.5,49.5,46.8,51.0,48.0,45.0,100,95,87,30.33,30.27,9,4,22,15.60
2013-5-6,57.0,51.2,48.1,55.3,50.9,48.1,100,99,94,30.31,30.20,10,3,22,15.60
2013-5-7,58.4,53.7,49.1,58.3,53.7,49.1,100,100,99,30.21,30.13,9,2,22,0.01
2013-5-8,62.7,58.7,56.0,62.7,58.5,56.0,100,99,95,30.13,30.01,12,3,22,1.50
2013-5-9,70.1,60.4,54.3,65.2,59.2,54.3,100,96,82,30.04,29.94,11,1,22,0.40
2013-5-10,78.8,65.3,57.1,67.5,62.5,57.1,100,91,65,30.04,29.92,11,2,22,61.44
2013-5-11,72.3,64.1,60.7,70.5,63.9,60.6,100,99,92,29.95,29.75,13,2,22,0.79
2013-5-12,72.2,62.5,53.3,64.0,53.9,42.0,100,76,48,30.00,29.71,26,5,26,0.06
2013-5-13,62.1,53.7,45.1,48.3,42.7,38.8,88,67,54,30.14,29.98,17,4,26,81.84
2013-5-14,63.8,53.8,41.6,51.5,44.7,40.0,96,74,45,30.18,30.08,14,2,26,81.84
2013-5-15,71.5,60.0,50.0,65.9,57.0,43.1,97,90,76,30.12,29.74,14,2,26,81.84
2013-5-16,75.0,68.1,61.3,66.9,62.2,56.4,100,83,57,29.89,29.73,10,1,26,0.01
2013-5-17,75.7,68.2,58.5,65.6,55.7,51.0,96,66,48,30.24,29.86,13,2,26,82.08
2013-5-18,63.7,59.3,56.2,61.5,58.3,55.1,100,97,88,30.35,30.22,7,1,26,0.02
2013-5-19,59.5,57.5,56.1,59.5,57.5,56.1,100,100,99,30.34,30.19,12,1,26,0.53
2013-5-20,76.8,66.6,59.2,75.3,66.2,59.2,100,99,94,30.21,30.01,8,1,26,0.02
2013-5-21,85.6,76.6,65.8,77.7,73.2,65.8,100,90,75,30.02,29.89,11,2,26,95.76
2013-5-22,80.1,71.8,64.8,77.0,70.9,64.8,100,97,87,29.97,29.87,6,1,26,95.76
2013-5-23,78.8,71.7,64.2,76.1,70.8,64.2,100,97,86,29.95,29.81,15,3,26,0.10
2013-5-24,69.8,59.0,46.9,69.1,58.8,46.9,100,99,96,30.00,29.74,17,3,26,0.18
2013-5-25,59.7,51.8,45.5,53.6,49.0,45.4,100,91,72,30.07,29.95,26,6,26,0.06
2013-5-26,70.1,60.3,49.3,53.2,48.9,46.4,91,68,48,30.24,30.02,18,6,26,103.92
2013-5-27,75.8,64.3,47.2,56.4,51.8,45.7,96,66,46,30.29,30.17,14,2,26,103.92
2013-5-28,71.8,61.2,55.6,62.8,58.8,54.0,100,92,65,30.27,30.16,9,0,26,0.38
2013-5-29,87.8,71.4,58.0,76.0,67.5,57.9,100,89,64,30.17,30.05,12,2,26,113.04
2013-5-30,92.8,81.6,72.0,76.6,74.1,71.1,97,79,52,30.18,30.10,11,3,26,113.04
2013-5-31,92.3,81.9,72.6,78.4,74.8,71.9,98,80,54,30.17,30.04,10,2,26,108.33
2013-6-1,90.7,79.9,71.2,77.4,74.2,70.4,98,84,60,30.08,29.95,13,3,26,113.04
2013-6-2,88.3,78.8,72.1,77.1,74.5,71.7,99,87,68,29.98,29.84,17,4,26,0.04
2013-6-3,77.0,71.6,67.3,75.7,71.4,67.3,100,99,96,29.91,29.83,14,1,26,0.52
2013-6-4,76.3,70.0,60.2,67.8,58.3,53.9,100,67,54,30.14,29.89,17,3,26,0.00
2013-6-5,71.5,64.0,55.8,62.4,59.1,53.3,100,85,67,30.25,30.13,11,2,26,0.00
2013-6-6,69.5,63.4,59.9,67.1,63.1,59.8,100,99,92,30.19,30.04,15,2,26,0.04
2013-6-7,67.3,63.4,61.1,67.3,63.4,61.1,100,100,100,30.06,29.61,13,2,26,4.68
2013-6-8,77.8,69.1,58.1,73.6,67.7,58.1,100,95,84,30.09,29.57,15,3,26,0.21
2013-6-9,80.5,71.0,62.9,69.9,66.9,62.7,100,88,66,30.22,30.08,9,1,26,0.00
2013-6-10,68.9,65.6,63.2,68.3,65.5,63.1,100,100,97,30.20,29.86,12,1,26,2.06
2013-6-11,82.9,74.9,66.8,75.8,71.5,66.3,100,90,74,29.86,29.68,18,4,26,0.03
2013-6-12,83.5,74.5,67.1,69.2,66.5,64.1,95,77,57,29.89,29.76,17,4,26,0.00
2013-6-13,69.0,66.1,60.2,68.4,65.3,60.2,100,98,90,29.89,29.47,15,2,26,1.16
2013-6-14,72.6,62.6,55.8,66.5,60.7,55.6,100,94,74,29.94,29.49,21,3,26,0.10
2013-6-15,83.7,72.5,59.6,69.6,64.5,59.6,100,78,54,30.05,29.92,14,2,26,0.00
2013-6-16,84.9,73.6,63.9,76.0,68.7,63.0,97,85,67,30.04,29.83,19,3,26,0.00
2013-6-17,87.5,75.5,68.2,76.2,72.2,68.1,100,90,67,29.96,29.88,40,3,40,0.49
2013-6-18,79.1,70.2,66.0,75.5,69.6,65.8,100,98,84,29.93,29.81,11,1,40,0.64
2013-6-19,78.3,70.0,62.9,66.9,63.7,60.1,100,82,58,30.19,29.87,17,3,40,0.00
2013-6-20,80.0,69.7,59.1,68.9,63.4,58.8,100,82,64,30.29,30.17,14,2,40,0.00
2013-6-21,80.3,70.1,61.0,68.6,63.9,60.4,98,82,60,30.34,30.28,13,1,40,0.00
2013-6-22,83.3,71.4,61.1,72.4,66.3,61.1,100,85,59,30.30,30.18,11,2,40,0.00
2013-6-23,86.3,75.3,66.1,78.9,72.5,63.5,100,91,73,30.24,30.11,9,2,40,0.08
2013-6-24,92.8,81.0,73.4,82.1,76.4,73.4,100,87,62,30.13,30.00,14,3,40,0.03
2013-6-25,92.1,82.1,70.8,80.9,75.9,70.6,100,83,65,30.04,29.87,14,4,40,0.00
2013-6-26,91.2,81.1,73.3,80.0,74.9,71.2,100,83,58,29.91,29.82,16,4,40,1.21
2013-6-27,88.0,77.3,72.4,81.4,76.2,72.4,100,97,82,29.89,29.63,12,2,40,0.08
2013-6-28,88.0,79.5,74.2,79.7,76.5,72.8,100,91,71,29.64,29.53,14,3,40,0.02
2013-6-29,83.7,75.5,70.2,77.8,74.2,70.0,100,96,80,29.75,29.54,11,1,40,0.02
2013-6-30,85.5,75.6,70.9,81.3,75.2,70.8,100,98,87,29.95,29.74,10,1,40,0.04
2013-7-1,83.8,74.4,71.2,81.0,74.2,71.2,100,99,90,30.09,29.93,10,1,40,0.80
2013-7-2,81.3,75.5,71.5,80.0,75.2,71.2,100,99,96,30.24,30.08,16,1,40,0.47
2013-7-3,84.3,77.4,71.4,81.0,76.7,71.2,100,98,90,30.29,30.20,8,1,40,0.07
2013-7-4,91.0,82.1,75.0,82.8,79.0,74.9,100,91,71,30.30,30.20,14,3,40,0.00
2013-7-5,92.3,83.6,74.4,82.7,79.0,74.2,100,87,67,30.26,30.14,13,3,40,0.00
2013-7-6,95.1,87.1,76.7,83.6,80.3,76.6,100,82,65,30.19,30.07,11,4,40,0.00
2013-7-7,95.3,87.0,77.4,84.1,80.3,76.9,99,81,65,30.11,29.97,13,4,40,0.00
2013-7-8,90.5,80.8,73.2,79.7,76.4,72.4,98,87,68,30.10,30.01,12,4,40,0.00
2013-7-9,90.1,81.0,72.4,81.9,76.9,71.9,100,88,72,30.12,30.03,10,2,40,0.02
2013-7-10,89.2,82.4,74.6,82.6,79.3,74.0,100,91,75,30.07,29.86,13,3,40,0.00
2013-7-11,85.4,79.8,76.5,80.1,77.9,75.5,100,94,75,29.95,29.86,11,2,40,0.18
2013-7-12,79.3,73.3,68.9,75.9,71.9,68.7,100,96,86,30.11,29.94,18,4,40,0.30
2013-7-13,82.5,75.9,70.2,81.3,75.7,69.9,100,100,96,30.31,30.10,14,1,40,0.00
2013-7-14,91.5,81.7,74.4,82.1,79.1,74.4,100,92,72,30.37,30.28,9,2,40,0.00
2013-7-15,96.9,86.1,76.4,85.6,80.7,76.0,100,85,60,30.29,30.15,11,3,40,0.03
2013-7-16,95.4,87.0,77.2,80.6,77.3,73.7,98,75,52,30.23,30.15,11,1,40,0.00
2013-7-17,97.8,86.2,76.4,80.7,77.7,74.7,96,77,55,30.22,30.11,9,1,40,0.00
2013-7-18,99.1,86.8,78.8,83.6,78.9,75.3,95,78,58,30.12,30.00,14,2,40,0.00
2013-7-19,93.7,85.7,78.1,82.1,79.0,76.2,99,81,62,30.02,29.85,16,5,40,0.00
2013-7-20,91.2,83.2,77.5,79.0,76.6,73.1,94,81,62,29.87,29.77,17,4,40,0.00
2013-7-21,80.7,76.5,73.3,77.5,73.4,68.9,99,91,71,29.99,29.87,13,2,40,0.00
2013-7-22,79.0,75.3,72.7,78.0,75.1,72.7,100,99,96,29.99,29.83,9,2,40,0.29
2013-7-23,89.6,80.6,72.7,81.2,77.7,72.6,100,92,71,29.85,29.61,11,2,40,0.25
2013-7-24,87.2,79.7,73.6,77.8,73.7,66.6,98,83,71,29.95,29.66,11,3,40,0.00
2013-7-25,75.6,67.8,65.4,67.3,64.8,63.1,99,91,77,30.07,29.93,15,4,40,0.00
2013-7-26,82.6,73.2,65.3,74.4,69.7,65.0,100,90,67,30.09,30.02,14,2,40,0.00
2013-7-27,84.2,74.4,67.1,75.8,71.9,67.0,100,92,71,30.10,30.00,11,2,40,0.00
2013-7-28,78.3,73.6,67.5,77.0,73.2,67.5,100,98,94,30.03,29.96,13,1,40,0.18
2013-7-29,85.5,76.5,68.4,77.4,71.3,64.7,100,85,60,30.15,29.98,10,2,40,0.08
2013-7-30,85.0,76.4,64.0,68.9,66.5,62.5,95,73,55,30.21,30.13,11,2,40,0.00
2013-7-31,84.8,75.1,64.3,71.5,68.6,63.6,98,81,60,30.20,30.08,12,1,40,0.00
2013-8-1,76.7,72.0,69.5,73.9,70.9,68.9,100,96,89,30.09,29.87,8,0,40,0.90
2013-8-2,86.3,77.9,68.4,75.4,71.7,68.2,100,83,63,29.97,29.84,12,2,40,0.00
2013-8-3,77.8,73.4,69.8,74.5,72.0,69.5,100,95,87,29.97,29.90,12,2,40,0.05
2013-8-4,84.0,75.1,64.4,70.3,66.9,61.1,100,77,58,30.01,29.89,16,2,40,0.00
2013-8-5,81.1,72.4,61.3,67.4,62.3,58.8,93,72,50,30.10,30.00,10,2,40,0.00
2013-8-6,81.6,73.2,62.4,69.9,66.3,61.1,96,80,58,30.16,30.07,11,1,40,0.00
2013-8-7,78.3,74.3,70.5,74.5,72.3,69.2,99,93,84,30.18,30.10,13,2,40,0.00
2013-8-8,81.6,75.4,71.5,79.9,75.1,71.3,100,99,94,30.12,30.05,10,2,40,1.47
2013-8-9,87.1,79.3,73.7,83.1,78.2,73.6,100,96,86,30.08,29.86,17,2,40,0.01
2013-8-10,84.5,79.5,73.0,78.1,73.6,70.9,100,83,67,30.08,29.89,10,2,40,0.00
2013-8-11,80.5,73.8,65.1,73.6,68.8,64.3,100,85,67,30.17,30.07,8,1,40,0.00
2013-8-12,79.7,74.0,70.2,77.3,73.6,70.2,100,99,92,30.08,29.97,5,0,40,0.45
2013-8-13,75.4,70.8,66.8,75.4,70.6,66.7,100,100,96,29.98,29.75,10,0,40,2.35
2013-8-14,75.0,68.0,61.1,69.3,61.0,57.7,100,79,61,30.06,29.78,16,3,40,0.00
2013-8-15,75.8,64.8,55.8,62.8,59.2,55.0,98,83,56,30.16,30.05,10,1,40,0.00
2013-8-16,78.3,68.2,58.1,65.8,61.8,57.4,98,81,55,30.22,30.14,10,1,40,0.00
2013-8-17,77.3,68.6,58.4,67.2,63.3,58.2,100,84,66,30.28,30.21,8,1,40,0.00
2013-8-18,73.3,67.8,63.6,69.5,65.3,62.7,99,92,78,30.28,30.14,11,1,40,0.01
2013-8-19,78.0,69.8,61.5,69.2,65.7,60.9,99,88,67,30.16,30.05,9,2,40,0.00
2013-8-20,82.8,73.6,64.3,74.1,70.3,64.3,100,90,72,30.15,30.07,9,1,40,0.00
2013-8-21,86.6,76.0,67.7,76.0,72.0,67.4,100,89,56,30.19,30.08,10,2,40,0.00
2013-8-22,80.5,73.2,70.3,76.2,72.5,70.2,100,98,85,30.09,29.89,13,2,40,0.16
2013-8-23,82.3,74.0,67.1,73.1,66.9,61.5,100,80,50,30.10,29.89,13,1,40,0.00
2013-8-24,75.7,68.6,61.2,67.1,63.7,60.6,99,85,66,30.36,30.08,16,2,40,0.00
2013-8-25,80.1,69.2,58.3,66.4,61.4,58.2,100,78,53,30.41,30.27,9,1,40,0.00
2013-8-26,81.7,72.3,64.1,71.7,66.8,59.2,96,84,67,30.28,29.94,14,5,40,0.00
2013-8-27,83.8,76.2,68.5,73.3,71.4,68.4,100,86,67,29.96,29.85,13,3,40,0.07
2013-8-28,81.8,74.2,68.5,75.0,72.3,68.4,100,94,79,29.91,29.86,6,0,40,0.00
2013-8-29,73.5,70.0,66.9,70.8,69.3,66.9,100,98,90,30.05,29.89,14,2,40,0.00
2013-8-30,81.1,73.3,67.7,74.1,70.7,67.3,99,92,77,30.05,29.89,8,3,40,0.00
2013-8-31,83.9,75.5,68.3,77.3,73.3,68.3,100,93,78,29.91,29.81,10,3,40,0.00
2013-9-1,81.1,75.1,71.3,77.2,74.2,71.2,100,97,86,29.88,29.81,10,1,40,0.00
2013-9-2,76.7,72.8,69.4,76.1,72.7,69.4,100,100,97,29.84,29.74,7,0,40,0.08
2013-9-3,82.8,74.5,67.8,77.6,71.0,65.7,100,90,68,29.90,29.74,11,2,40,0.00
2013-9-4,82.4,73.3,62.9,69.1,66.0,62.6,99,79,60,30.03,29.90,9,3,40,0.00
2013-9-5,80.1,71.8,62.5,70.3,63.8,55.5,97,77,54,30.17,29.98,9,3,40,0.00
2013-9-6,70.7,64.8,57.5,59.0,56.8,53.5,95,76,64,30.29,30.17,9,2,40,0.00
2013-9-7,79.4,66.8,52.7,64.9,59.8,52.2,99,80,50,30.18,29.96,8,1,40,0.00
2013-9-8,85.0,74.0,65.4,73.6,66.5,56.7,100,79,58,30.11,29.87,16,3,40,0.00
2013-9-9,72.1,68.0,63.2,67.1,61.7,55.7,96,81,70,30.28,30.08,13,2,40,0.00
2013-9-10,86.5,77.2,68.4,80.1,74.7,65.8,98,92,81,30.22,30.10,13,3,40,0.00
2013-9-11,91.9,82.4,74.7,83.2,78.6,74.7,100,89,73,30.16,30.02,8,2,40,0.00
2013-9-12,87.8,77.6,72.5,80.4,76.1,72.5,100,95,78,30.05,29.74,9,2,40,0.39
2013-9-13,80.4,72.2,62.7,74.2,68.1,58.7,100,88,68,29.90,29.69,9,3,40,0.15
2013-9-14,71.3,62.5,53.9,59.7,57.1,52.8,98,83,66,30.17,29.89,12,3,40,0.00
2013-9-15,75.1,62.7,49.4,64.6,57.6,49.3,100,85,58,30.26,30.13,10,1,40,0.00
2013-9-16,70.0,64.4,60.3,66.2,62.8,59.5,100,95,82,30.25,30.08,12,1,40,0.04
2013-9-17,63.3,57.7,50.6,59.8,51.4,47.0,98,80,64,30.46,30.25,13,3,40,0.00
2013-9-18,71.7,59.6,47.4,60.5,55.3,47.4,100,87,64,30.39,30.23,10,1,40,0.00
2013-9-19,76.8,64.2,52.7,64.6,60.2,52.7,100,88,61,30.24,30.13,6,1,40,0.00
2013-9-20,78.0,66.6,56.6,68.8,63.7,56.6,100,91,67,30.14,30.02,10,1,40,0.00
2013-9-21,76.0,67.7,56.3,74.2,66.9,56.3,100,98,82,30.04,29.71,16,2,40,0.10
2013-9-22,74.0,67.6,60.6,71.6,61.4,53.5,100,82,63,29.94,29.68,10,3,40,0.45
2013-9-23,69.4,60.4,49.6,56.6,53.3,48.7,98,78,62,30.08,29.94,13,2,40,0.00
2013-9-24,72.5,61.0,47.9,61.1,55.3,47.9,100,83,62,30.09,29.92,8,2,11,0.00
2013-9-25,72.6,61.9,51.0,61.8,58.0,50.8,100,88,66,30.00,29.93,7,0,11,0.00
2013-9-26,72.1,61.8,53.2,67.5,60.6,53.1,100,96,86,30.13,29.97,15,1,15,0.00
2013-9-27,70.3,63.2,54.5,64.5,60.7,54.3,100,92,77,30.30,30.13,10,1,15,0.00
2013-9-28,72.1,65.5,58.2,65.2,62.1,58.0,100,89,72,30.35,30.27,12,2,15,0.00
2013-9-29,69.8,61.3,54.1,64.7,59.1,54.1,100,93,81,30.27,30.11,10,2,15,0.00
2013-9-30,72.8,62.0,52.1,67.0,59.5,52.1,100,92,70,30.12,30.02,7,1,15,0.00
2013-10-1,82.2,69.2,57.0,69.3,64.0,56.9,100,85,61,30.05,29.95,8,2,15,0.00
2013-10-2,83.5,72.9,61.3,71.3,67.5,60.8,99,84,65,30.06,29.96,13,2,15,0.00
2013-10-3,77.1,70.1,61.9,69.5,65.0,61.6,100,85,64,30.16,30.04,8,0,15,0.00
2013-10-4,86.3,74.7,61.2,74.8,70.8,61.2,100,88,67,30.11,30.02,9,1,15,0.00
2013-10-5,74.3,68.4,65.6,71.1,68.1,65.6,100,99,96,30.13,30.04,8,1,15,0.02
2013-10-6,70.8,68.1,65.5,70.5,68.1,65.4,100,100,100,30.13,30.06,10,1,15,0.01
2013-10-7,77.5,69.8,62.0,76.0,69.5,61.2,100,99,96,30.07,29.84,26,3,26,0.15
2013-10-8,68.5,62.0,54.5,61.5,56.1,53.6,99,82,64,30.33,30.01,14,2,26,0.00
2013-10-9,62.4,60.8,59.4,59.2,57.5,51.2,96,89,71,30.40,30.29,20,6,26,0.00
2013-10-10,64.8,60.7,56.7,64.7,60.5,56.6,100,99,95,30.31,30.08,21,6,26,0.17
2013-10-11,65.9,63.3,61.5,65.9,63.3,61.5,100,100,99,30.10,30.02,15,5,26,0.47
2013-10-12,68.6,64.0,61.4,64.3,61.3,55.7,99,91,78,30.30,30.08,26,6,26,0.00
2013-10-13,63.7,60.4,58.5,61.2,58.9,56.6,99,95,87,30.41,30.29,23,6,26,0.00
2013-10-14,63.3,58.5,51.4,60.2,57.1,51.4,100,95,85,30.40,30.29,13,2,26,0.00
2013-10-15,67.3,58.4,48.9,64.0,56.9,48.8,100,95,81,30.30,30.14,10,1,26,0.00
2013-10-16,66.0,62.4,60.0,64.8,62.2,59.9,100,100,96,30.16,29.97,9,1,26,0.00
2013-10-17,72.0,64.7,61.0,69.9,64.5,60.9,100,99,93,29.99,29.74,10,1,26,0.00
2013-10-18,69.5,62.8,54.7,67.2,56.9,50.9,100,82,65,30.03,29.74,16,5,26,0.01
2013-10-19,65.3,57.3,47.5,60.3,55.2,47.2,100,93,80,30.04,29.80,8,1,26,0.01
2013-10-20,64.5,56.8,49.2,59.8,50.9,46.7,100,82,58,30.12,29.80,16,3,26,0.00
2013-10-21,68.6,56.9,46.1,56.2,50.9,45.3,98,82,55,30.20,30.03,8,1,26,0.00
2013-10-22,71.4,57.9,48.4,60.5,54.1,48.3,100,88,65,30.03,29.81,12,2,26,0.00
2013-10-23,55.2,50.8,43.7,52.7,48.3,43.5,100,92,78,29.87,29.65,16,2,26,0.02
2013-10-24,56.4,46.9,39.7,47.3,41.9,38.5,100,84,64,30.07,29.81,11,4,26,0.00
2013-10-25,55.7,46.8,38.8,45.7,41.2,37.5,96,82,63,30.28,30.06,14,3,26,0.00
2013-10-26,58.0,48.2,37.3,45.7,42.2,36.8,98,81,59,30.27,29.95,15,3,26,0.00
2013-10-27,60.4,52.5,45.0,47.8,44.5,41.3,88,75,60,30.17,29.92,15,3,26,0.00
2013-10-28,63.8,50.7,38.4,50.2,44.6,37.6,98,81,59,30.33,30.16,12,1,26,0.00
2013-10-29,55.9,51.2,44.3,51.1,48.0,43.8,99,89,80,30.44,30.32,12,2,26,0.00
2013-10-30,63.0,52.3,43.4,61.3,52.1,43.3,100,99,93,30.40,30.23,9,0,26,0.00
2013-10-31,68.9,61.8,53.5,67.5,61.4,53.4,100,99,94,30.28,29.87,15,2,26,0.02
2013-11-1,71.2,65.6,60.5,69.7,64.7,60.5,100,97,83,29.91,29.62,27,5,27,0.31
2013-11-2,67.8,59.5,53.3,64.3,57.9,50.6,100,95,81,29.83,29.67,8,1,27,0.01
2013-11-3,55.4,48.4,38.3,50.8,44.1,34.0,100,85,70,30.47,29.83,12,2,27,0.00
2013-11-4,47.8,42.6,36.8,44.4,36.4,30.6,93,79,70,30.67,30.45,16,2,27,0.00
2013-11-5,55.7,51.5,47.8,50.9,48.5,44.3,100,89,82,30.67,30.51,8,2,27,0.00
2013-11-6,61.4,54.1,41.2,60.4,52.8,41.1,100,96,83,30.53,30.09,10,2,27,0.00
2013-11-7,65.2,57.4,42.1,64.6,56.6,40.9,100,97,83,30.11,29.79,17,4,27,0.07
2013-11-8,54.2,45.2,39.5,44.2,40.2,36.5,96,83,66,30.26,29.97,19,4,27,0.00
2013-11-9,51.9,44.8,35.7,43.8,39.1,34.3,96,81,64,30.33,30.03,12,2,27,0.00
2013-11-10,63.6,51.9,44.6,49.9,44.1,39.7,93,76,60,30.10,29.86,26,6,27,0.00
2013-11-11,57.0,50.0,40.9,45.4,41.2,35.8,82,72,60,30.25,30.00,14,4,27,0.00
2013-11-12,52.0,40.6,31.8,46.5,36.3,27.4,100,85,76,30.32,29.96,20,5,27,0.01
2013-11-13,44.6,35.0,28.7,30.2,27.8,25.8,90,76,53,30.40,30.31,17,3,27,0.00
2013-11-14,54.8,43.9,33.2,34.7,31.9,29.1,88,65,44,30.33,30.20,13,5,27,0.00
2013-11-15,60.1,47.0,38.7,49.5,41.3,33.3,94,81,53,30.29,30.19,8,1,27,0.00
2013-11-16,54.6,48.3,42.4,54.2,47.6,40.3,100,97,87,30.36,30.26,7,0,27,0.06
2013-11-17,62.4,56.5,47.2,62.3,56.5,47.2,100,100,100,30.29,29.83,10,1,27,0.00
2013-11-18,67.4,61.1,52.5,63.4,52.4,40.3,100,75,52,29.84,29.66,15,5,27,0.26
2013-11-19,52.3,46.5,37.6,40.3,37.4,32.8,83,71,63,30.37,29.83,17,6,27,0.00
2013-11-20,45.8,40.5,34.9,35.4,32.2,29.1,88,73,58,30.63,30.37,16,2,27,0.00
2013-11-21,52.6,46.3,32.7,50.2,43.9,30.2,97,91,79,30.63,30.43,11,1,27,0.00
2013-11-22,59.7,54.1,49.0,58.7,53.6,48.0,100,98,94,30.43,29.95,13,3,27,0.01
2013-11-23,54.4,44.9,33.6,54.3,38.3,25.2,100,78,62,30.08,29.95,21,6,27,0.00
2013-11-24,33.7,28.3,24.4,25.5,17.6,15.0,72,64,57,30.44,30.05,29,8,29,0.00
2013-11-25,37.9,30.0,21.5,28.0,22.9,16.3,87,75,65,30.55,30.39,11,3,29,0.00
2013-11-26,54.9,41.1,33.4,54.8,38.0,27.9,100,89,72,30.39,29.77,18,3,29,0.56
2013-11-27,62.4,48.6,35.4,62.0,48.3,31.2,100,99,85,29.80,29.37,26,6,29,1.63
2013-11-28,39.4,34.1,30.0,32.1,27.7,26.0,92,78,63,30.51,29.80,17,5,29,0.00
2013-11-29,42.7,35.3,29.7,33.0,30.2,27.4,95,82,68,30.75,30.50,12,1,29,0.00
2013-11-30,45.1,36.2,26.9,44.6,34.2,25.2,99,92,85,30.76,30.38,11,2,29,0.00
2013-12-1,52.9,43.3,35.1,45.9,41.7,34.9,100,94,75,30.38,30.05,8,1,29,0.00
2013-12-2,52.1,43.2,36.0,47.3,41.2,35.8,100,93,73,30.05,29.91,7,0,29,0.00
2013-12-3,54.9,44.2,37.3,49.0,43.3,37.2,100,97,80,30.03,29.90,6,0,29,0.01
2013-12-4,51.8,45.3,36.9,51.5,45.1,36.9,100,100,96,30.15,30.03,5,0,29,0.00
2013-12-5,60.5,55.0,48.5,60.4,55.0,48.5,100,100,100,30.15,29.97,10,1,29,0.00
2013-12-6,62.4,50.8,38.1,62.3,50.8,38.1,100,100,100,30.17,29.91,17,3,29,0.39
2013-12-7,43.5,38.0,32.5,41.5,36.5,29.9,100,94,82,30.54,30.10,10,3,29,0.15
2013-12-8,39.2,32.6,29.2,39.1,31.0,26.6,100,94,84,30.61,30.36,15,2,29,0.15
2013-12-9,44.1,39.4,34.9,43.8,39.4,34.8,100,100,100,30.36,30.00,19,3,29,0.73
2013-12-10,36.4,33.6,28.5,36.3,33.5,27.8,100,100,96,30.20,29.89,14,3,29,0.09
2013-12-11,35.2,30.6,26.0,29.6,27.2,24.0,98,87,75,30.40,30.20,17,3,29,0.00
2013-12-12,30.9,26.6,22.7,26.4,21.2,18.6,94,80,65,30.41,30.24,18,3,29,0.00
2013-12-13,37.9,29.6,21.3,29.3,24.5,17.7,91,81,70,30.38,30.19,18,3,29,0.00
2013-12-14,49.9,35.0,30.1,49.8,34.5,27.5,100,98,88,30.51,29.74,25,5,29,0.96
2013-12-15,53.9,39.5,32.9,53.7,38.6,30.5,100,97,85,29.92,29.52,23,6,29,0.58
2013-12-16,33.6,29.4,23.3,31.6,24.1,20.5,96,81,68,30.28,29.90,21,5,29,0.00
2013-12-17,42.2,32.9,25.6,42.2,32.1,22.3,100,97,85,30.27,29.96,11,2,29,0.16
2013-12-18,39.4,31.5,25.2,34.6,29.5,25.0,100,93,79,30.23,29.96,18,4,29,0.00
2013-12-19,51.6,38.1,27.5,43.1,35.0,26.9,99,89,70,30.25,30.08,11,2,29,0.00
2013-12-20,56.9,47.1,34.0,56.4,43.7,34.0,100,89,69,30.15,30.02,14,3,29,0.00
2013-12-21,67.9,58.6,53.6,62.3,57.1,53.2,100,95,81,30.04,29.92,12,4,29,0.00
2013-12-22,71.8,64.9,60.9,70.5,64.5,60.9,100,99,94,29.99,29.84,17,5,29,0.01
2013-12-23,64.6,56.3,43.5,64.0,56.3,42.8,100,100,97,30.17,29.91,16,2,29,0.53
2013-12-24,44.7,38.4,29.5,42.9,34.0,23.9,97,84,70,30.37,30.11,16,4,29,0.00
2013-12-25,31.6,27.9,21.9,28.9,22.2,17.7,90,79,69,30.55,30.37,17,2,29,0.00
2013-12-26,41.0,32.8,26.4,36.7,30.8,25.4,98,93,83,30.46,30.19,11,1,29,0.00
2013-12-27,46.9,35.2,28.2,36.8,30.7,27.3,97,85,64,30.42,30.30,13,2,29,0.00
2013-12-28,60.2,44.1,30.0,44.5,37.2,28.9,96,78,56,30.34,30.12,20,4,29,0.00
2013-12-29,53.7,45.4,41.1,53.6,43.2,38.4,100,93,76,30.12,29.42,17,3,29,1.36
2013-12-30,48.0,38.9,26.6,46.0,36.9,22.5,100,92,82,30.23,29.74,10,4,29,0.00
2013-12-31,38.2,30.3,24.6,33.7,25.6,21.3,90,83,78,30.33,30.11,20,3,29,0.00
2014-1-1,38.3,31.9,24.9,37.2,27.8,20.6,97,85,75,30.45,30.27,13,1,29,0.00
2014-1-2,38.4,32.4,24.3,38.4,32.4,24.1,100,100,97,30.27,29.66,23,7,29,0.00